sensor_id;sensor_type;location;lat;lon;timestamp;temperature;humidity
53711;DHT22;39605;52.704;6.752;2022-11-15T00:00:16;7.70;99.90
53711;DHT22;39605;52.704;6.752;2022-11-15T00:02:42;7.70;99.90
53711;DHT22;39605;52.704;6.752;2022-11-15T00:05:07;7.70;99.90
53711;DHT22;39605;52.704;6.752;2022-11-15T00:07:33;7.70;99.90
53711;DHT22;39605;52.704;6.752;2022-11-15T00:09:59;7.70;99.90
53711;DHT22;39605;52.704;6.752;2022-11-15T00:12:24;7.80;99.90
53711;DHT22;39605;52.704;6.752;2022-11-15T00:14:50;7.80;99.90
53711;DHT22;39605;52.704;6.752;2022-11-15T00:17:15;7.80;99.90
53711;DHT22;39605;52.704;6.752;2022-11-15T00:19:41;7.80;99.90
53711;DHT22;39605;52.704;6.752;2022-11-15T00:22:07;7.80;99.90
53711;DHT22;39605;52.704;6.752;2022-11-15T00:24:32;7.80;99.90
53711;DHT22;39605;52.704;6.752;2022-11-15T00:26:58;7.80;99.90
53711;DHT22;39605;52.704;6.752;2022-11-15T00:29:23;7.90;99.90
53711;DHT22;39605;52.704;6.752;2022-11-15T00:31:49;7.90;99.90
53711;DHT22;39605;52.704;6.752;2022-11-15T00:34:14;8.00;99.90
53711;DHT22;39605;52.704;6.752;2022-11-15T00:36:40;8.00;99.90
53711;DHT22;39605;52.704;6.752;2022-11-15T00:39:06;8.00;99.90
53711;DHT22;39605;52.704;6.752;2022-11-15T00:41:31;8.00;99.90
53711;DHT22;39605;52.704;6.752;2022-11-15T00:43:57;8.00;99.90
53711;DHT22;39605;52.704;6.752;2022-11-15T00:46:23;8.00;99.90
53711;DHT22;39605;52.704;6.752;2022-11-15T00:48:48;8.10;99.90
53711;DHT22;39605;52.704;6.752;2022-11-15T00:51:14;8.00;99.90
53711;DHT22;39605;52.704;6.752;2022-11-15T00:53:39;8.00;99.90
53711;DHT22;39605;52.704;6.752;2022-11-15T00:56:05;8.00;99.90
53711;DHT22;39605;52.704;6.752;2022-11-15T00:58:31;8.10;99.90
53711;DHT22;39605;52.704;6.752;2022-11-15T01:01:09;8.10;99.90
53711;DHT22;39605;52.704;6.752;2022-11-15T01:03:35;8.10;99.90
53711;DHT22;39605;52.704;6.752;2022-11-15T01:06:02;8.10;99.90
53711;DHT22;39605;52.704;6.752;2022-11-15T01:08:28;8.10;99.90
53711;DHT22;39605;52.704;6.752;2022-11-15T01:10:53;8.10;99.90
53711;DHT22;39605;52.704;6.752;2022-11-15T01:13:19;8.10;99.90
53711;DHT22;39605;52.704;6.752;2022-11-15T01:15:45;8.10;99.90
53711;DHT22;39605;52.704;6.752;2022-11-15T01:18:10;8.10;99.90
53711;DHT22;39605;52.704;6.752;2022-11-15T01:20:42;8.20;99.90
53711;DHT22;39605;52.704;6.752;2022-11-15T01:23:08;8.10;99.90
53711;DHT22;39605;52.704;6.752;2022-11-15T01:25:34;8.20;99.90
53711;DHT22;39605;52.704;6.752;2022-11-15T01:28:00;8.10;99.90
53711;DHT22;39605;52.704;6.752;2022-11-15T01:30:25;8.20;99.90
53711;DHT22;39605;52.704;6.752;2022-11-15T01:32:51;8.10;99.90
53711;DHT22;39605;52.704;6.752;2022-11-15T01:35:16;8.10;99.90
53711;DHT22;39605;52.704;6.752;2022-11-15T01:37:42;8.20;99.90
53711;DHT22;39605;52.704;6.752;2022-11-15T01:40:08;8.20;99.90
53711;DHT22;39605;52.704;6.752;2022-11-15T01:42:34;8.20;99.90
53711;DHT22;39605;52.704;6.752;2022-11-15T01:44:59;8.20;99.90
53711;DHT22;39605;52.704;6.752;2022-11-15T01:47:32;8.20;99.90
53711;DHT22;39605;52.704;6.752;2022-11-15T01:50:26;8.20;99.90
53711;DHT22;39605;52.704;6.752;2022-11-15T01:52:53;8.20;99.90
53711;DHT22;39605;52.704;6.752;2022-11-15T01:55:22;8.30;99.90
53711;DHT22;39605;52.704;6.752;2022-11-15T01:57:54;8.20;99.90
53711;DHT22;39605;52.704;6.752;2022-11-15T02:00:20;8.30;99.90
53711;DHT22;39605;52.704;6.752;2022-11-15T02:02:46;8.30;99.90
53711;DHT22;39605;52.704;6.752;2022-11-15T02:05:12;8.30;99.90
53711;DHT22;39605;52.704;6.752;2022-11-15T02:07:38;8.30;99.90
53711;DHT22;39605;52.704;6.752;2022-11-15T02:10:17;8.40;99.90
53711;DHT22;39605;52.704;6.752;2022-11-15T02:12:43;8.40;99.90
53711;DHT22;39605;52.704;6.752;2022-11-15T02:15:10;8.40;99.90
53711;DHT22;39605;52.704;6.752;2022-11-15T02:26:28;8.50;99.90
53711;DHT22;39605;52.704;6.752;2022-11-15T02:29:06;8.50;99.90
53711;DHT22;39605;52.704;6.752;2022-11-15T02:31:51;8.50;99.90
53711;DHT22;39605;52.704;6.752;2022-11-15T02:39:50;8.60;99.90
53711;DHT22;39605;52.704;6.752;2022-11-15T02:42:23;8.60;99.90
53711;DHT22;39605;52.704;6.752;2022-11-15T02:45:17;8.60;99.90
53711;DHT22;39605;52.704;6.752;2022-11-15T02:47:47;8.60;99.90
53711;DHT22;39605;52.704;6.752;2022-11-15T02:50:18;8.70;99.90
53711;DHT22;39605;52.704;6.752;2022-11-15T02:52:48;8.70;99.90
53711;DHT22;39605;52.704;6.752;2022-11-15T02:55:35;8.80;99.90
53711;DHT22;39605;52.704;6.752;2022-11-15T03:00:35;8.80;99.90
53711;DHT22;39605;52.704;6.752;2022-11-15T03:03:17;8.80;99.90
53711;DHT22;39605;52.704;6.752;2022-11-15T03:05:56;8.90;99.90
53711;DHT22;39605;52.704;6.752;2022-11-15T03:10:59;8.90;99.90
53711;DHT22;39605;52.704;6.752;2022-11-15T03:22:12;8.90;99.90
53711;DHT22;39605;52.704;6.752;2022-11-15T03:24:40;9.00;99.90
53711;DHT22;39605;52.704;6.752;2022-11-15T03:27:09;9.00;99.90
53711;DHT22;39605;52.704;6.752;2022-11-15T03:29:39;9.00;99.90
53711;DHT22;39605;52.704;6.752;2022-11-15T03:32:12;9.20;99.90
53711;DHT22;39605;52.704;6.752;2022-11-15T03:34:53;9.10;99.90
53711;DHT22;39605;52.704;6.752;2022-11-15T03:37:59;9.10;99.90
53711;DHT22;39605;52.704;6.752;2022-11-15T03:40:17;9.10;99.90
53711;DHT22;39605;52.704;6.752;2022-11-15T03:43:09;9.20;99.90
53711;DHT22;39605;52.704;6.752;2022-11-15T03:45:40;9.20;99.90
53711;DHT22;39605;52.704;6.752;2022-11-15T03:48:14;9.20;99.90
53711;DHT22;39605;52.704;6.752;2022-11-15T03:50:42;9.20;99.90
53711;DHT22;39605;52.704;6.752;2022-11-15T03:53:09;9.20;99.90
53711;DHT22;39605;52.704;6.752;2022-11-15T03:55:35;9.20;99.90
53711;DHT22;39605;52.704;6.752;2022-11-15T03:58:01;9.20;99.90
53711;DHT22;39605;52.704;6.752;2022-11-15T04:00:28;9.30;99.90
53711;DHT22;39605;52.704;6.752;2022-11-15T04:02:54;9.30;99.90
53711;DHT22;39605;52.704;6.752;2022-11-15T04:05:20;9.30;99.90
53711;DHT22;39605;52.704;6.752;2022-11-15T04:07:45;9.30;99.90
53711;DHT22;39605;52.704;6.752;2022-11-15T04:10:12;9.30;99.90
53711;DHT22;39605;52.704;6.752;2022-11-15T04:12:43;9.40;99.90
53711;DHT22;39605;52.704;6.752;2022-11-15T04:15:15;9.40;99.90
53711;DHT22;39605;52.704;6.752;2022-11-15T04:17:49;9.40;99.90
53711;DHT22;39605;52.704;6.752;2022-11-15T04:20:18;9.40;99.90
53711;DHT22;39605;52.704;6.752;2022-11-15T04:23:05;9.50;99.90
53711;DHT22;39605;52.704;6.752;2022-11-15T04:25:51;9.50;99.90
53711;DHT22;39605;52.704;6.752;2022-11-15T04:28:18;9.50;99.90
53711;DHT22;39605;52.704;6.752;2022-11-15T04:30:44;9.50;99.90
53711;DHT22;39605;52.704;6.752;2022-11-15T04:33:09;9.60;99.90
53711;DHT22;39605;52.704;6.752;2022-11-15T04:35:35;9.60;99.90
53711;DHT22;39605;52.704;6.752;2022-11-15T04:38:03;9.60;99.90
53711;DHT22;39605;52.704;6.752;2022-11-15T04:40:29;9.60;99.90
53711;DHT22;39605;52.704;6.752;2022-11-15T04:42:55;9.60;99.90
53711;DHT22;39605;52.704;6.752;2022-11-15T04:45:20;9.70;99.90
53711;DHT22;39605;52.704;6.752;2022-11-15T04:47:46;9.70;99.90
53711;DHT22;39605;52.704;6.752;2022-11-15T04:50:13;9.70;99.90
53711;DHT22;39605;52.704;6.752;2022-11-15T04:52:48;9.70;99.90
53711;DHT22;39605;52.704;6.752;2022-11-15T04:55:15;9.70;99.90
53711;DHT22;39605;52.704;6.752;2022-11-15T04:57:41;9.70;99.90
53711;DHT22;39605;52.704;6.752;2022-11-15T05:00:09;9.80;99.90
53711;DHT22;39605;52.704;6.752;2022-11-15T05:02:35;9.80;99.90
53711;DHT22;39605;52.704;6.752;2022-11-15T05:05:20;9.80;99.90
53711;DHT22;39605;52.704;6.752;2022-11-15T05:07:45;9.90;99.90
53711;DHT22;39605;52.704;6.752;2022-11-15T05:10:11;9.90;99.90
53711;DHT22;39605;52.704;6.752;2022-11-15T05:12:37;9.90;99.90
53711;DHT22;39605;52.704;6.752;2022-11-15T05:15:03;9.90;99.90
53711;DHT22;39605;52.704;6.752;2022-11-15T05:17:28;9.90;99.90
53711;DHT22;39605;52.704;6.752;2022-11-15T05:19:54;10.00;99.90
53711;DHT22;39605;52.704;6.752;2022-11-15T05:22:20;10.00;99.90
53711;DHT22;39605;52.704;6.752;2022-11-15T05:24:46;10.00;99.90
53711;DHT22;39605;52.704;6.752;2022-11-15T05:27:11;10.10;99.90
53711;DHT22;39605;52.704;6.752;2022-11-15T05:29:37;10.10;99.90
53711;DHT22;39605;52.704;6.752;2022-11-15T05:32:07;10.10;99.90
53711;DHT22;39605;52.704;6.752;2022-11-15T05:34:33;10.20;99.90
53711;DHT22;39605;52.704;6.752;2022-11-15T05:36:59;10.20;99.90
53711;DHT22;39605;52.704;6.752;2022-11-15T05:39:25;10.20;99.90
53711;DHT22;39605;52.704;6.752;2022-11-15T05:42:01;10.30;99.90
53711;DHT22;39605;52.704;6.752;2022-11-15T05:44:31;10.30;99.90
53711;DHT22;39605;52.704;6.752;2022-11-15T05:46:57;10.30;99.90
53711;DHT22;39605;52.704;6.752;2022-11-15T05:49:26;10.30;99.90
53711;DHT22;39605;52.704;6.752;2022-11-15T05:51:54;10.40;99.90
53711;DHT22;39605;52.704;6.752;2022-11-15T05:54:21;10.40;99.90
53711;DHT22;39605;52.704;6.752;2022-11-15T05:56:48;10.50;99.90
53711;DHT22;39605;52.704;6.752;2022-11-15T05:59:14;10.40;99.90
53711;DHT22;39605;52.704;6.752;2022-11-15T06:01:40;10.40;99.90
53711;DHT22;39605;52.704;6.752;2022-11-15T06:04:06;10.50;99.90
53711;DHT22;39605;52.704;6.752;2022-11-15T06:06:32;10.60;99.90
53711;DHT22;39605;52.704;6.752;2022-11-15T06:08:57;10.60;99.90
53711;DHT22;39605;52.704;6.752;2022-11-15T06:11:23;10.60;99.90
53711;DHT22;39605;52.704;6.752;2022-11-15T06:13:48;10.60;99.90
53711;DHT22;39605;52.704;6.752;2022-11-15T06:16:14;10.60;99.90
53711;DHT22;39605;52.704;6.752;2022-11-15T06:18:40;10.70;99.90
53711;DHT22;39605;52.704;6.752;2022-11-15T06:21:05;10.70;99.90
53711;DHT22;39605;52.704;6.752;2022-11-15T06:23:32;10.80;99.90
53711;DHT22;39605;52.704;6.752;2022-11-15T06:26:01;10.70;99.90
53711;DHT22;39605;52.704;6.752;2022-11-15T06:28:33;10.80;99.90
53711;DHT22;39605;52.704;6.752;2022-11-15T06:31:07;10.80;99.90
53711;DHT22;39605;52.704;6.752;2022-11-15T06:33:33;10.80;99.90
53711;DHT22;39605;52.704;6.752;2022-11-15T06:36:08;10.80;99.90
53711;DHT22;39605;52.704;6.752;2022-11-15T06:38:34;10.90;99.90
53711;DHT22;39605;52.704;6.752;2022-11-15T06:41:08;10.90;99.90
53711;DHT22;39605;52.704;6.752;2022-11-15T06:43:34;10.90;99.90
53711;DHT22;39605;52.704;6.752;2022-11-15T06:46:01;10.90;99.90
53711;DHT22;39605;52.704;6.752;2022-11-15T06:48:28;10.90;99.90
53711;DHT22;39605;52.704;6.752;2022-11-15T06:50:55;10.90;99.90
53711;DHT22;39605;52.704;6.752;2022-11-15T06:53:21;10.90;99.90
53711;DHT22;39605;52.704;6.752;2022-11-15T06:55:47;10.90;99.90
53711;DHT22;39605;52.704;6.752;2022-11-15T06:58:13;11.00;99.90
53711;DHT22;39605;52.704;6.752;2022-11-15T07:00:39;11.00;99.90
53711;DHT22;39605;52.704;6.752;2022-11-15T07:03:04;11.00;99.90
53711;DHT22;39605;52.704;6.752;2022-11-15T07:05:30;11.00;99.90
53711;DHT22;39605;52.704;6.752;2022-11-15T07:07:57;11.10;99.90
53711;DHT22;39605;52.704;6.752;2022-11-15T07:10:24;11.10;99.90
53711;DHT22;39605;52.704;6.752;2022-11-15T07:12:54;11.10;99.90
53711;DHT22;39605;52.704;6.752;2022-11-15T07:15:23;11.10;99.90
53711;DHT22;39605;52.704;6.752;2022-11-15T07:17:48;11.20;99.90
53711;DHT22;39605;52.704;6.752;2022-11-15T07:20:15;11.10;99.90
53711;DHT22;39605;52.704;6.752;2022-11-15T07:22:41;11.20;99.90
53711;DHT22;39605;52.704;6.752;2022-11-15T07:25:08;11.20;99.90
53711;DHT22;39605;52.704;6.752;2022-11-15T07:27:34;11.20;99.90
53711;DHT22;39605;52.704;6.752;2022-11-15T07:30:00;11.20;99.90
53711;DHT22;39605;52.704;6.752;2022-11-15T07:32:26;11.20;99.90
53711;DHT22;39605;52.704;6.752;2022-11-15T07:34:51;11.20;99.90
53711;DHT22;39605;52.704;6.752;2022-11-15T07:37:17;11.20;99.90
53711;DHT22;39605;52.704;6.752;2022-11-15T07:39:43;11.20;99.90
53711;DHT22;39605;52.704;6.752;2022-11-15T07:42:09;11.30;99.90
53711;DHT22;39605;52.704;6.752;2022-11-15T07:44:53;11.30;99.90
53711;DHT22;39605;52.704;6.752;2022-11-15T07:47:19;11.30;99.90
53711;DHT22;39605;52.704;6.752;2022-11-15T07:49:46;11.30;99.90
53711;DHT22;39605;52.704;6.752;2022-11-15T07:52:12;11.40;99.90
53711;DHT22;39605;52.704;6.752;2022-11-15T07:54:38;11.30;99.90
53711;DHT22;39605;52.704;6.752;2022-11-15T07:57:04;11.40;99.90
53711;DHT22;39605;52.704;6.752;2022-11-15T07:59:31;11.30;99.90
53711;DHT22;39605;52.704;6.752;2022-11-15T08:01:56;11.40;99.90
53711;DHT22;39605;52.704;6.752;2022-11-15T08:04:22;11.40;99.90
53711;DHT22;39605;52.704;6.752;2022-11-15T08:06:48;11.40;99.90
53711;DHT22;39605;52.704;6.752;2022-11-15T08:09:13;11.60;99.90
53711;DHT22;39605;52.704;6.752;2022-11-15T08:11:39;11.40;99.90
53711;DHT22;39605;52.704;6.752;2022-11-15T08:14:04;11.50;99.90
53711;DHT22;39605;52.704;6.752;2022-11-15T08:16:30;11.50;99.90
53711;DHT22;39605;52.704;6.752;2022-11-15T08:18:56;11.50;99.90
53711;DHT22;39605;52.704;6.752;2022-11-15T08:21:22;11.60;99.90
53711;DHT22;39605;52.704;6.752;2022-11-15T08:23:48;11.40;99.90
53711;DHT22;39605;52.704;6.752;2022-11-15T08:26:13;11.50;99.90
53711;DHT22;39605;52.704;6.752;2022-11-15T08:28:40;11.50;99.90
53711;DHT22;39605;52.704;6.752;2022-11-15T08:31:05;11.50;99.90
53711;DHT22;39605;52.704;6.752;2022-11-15T08:33:32;11.60;99.90
53711;DHT22;39605;52.704;6.752;2022-11-15T08:35:59;11.50;99.90
53711;DHT22;39605;52.704;6.752;2022-11-15T08:38:25;11.50;99.90
53711;DHT22;39605;52.704;6.752;2022-11-15T08:40:53;11.60;99.90
53711;DHT22;39605;52.704;6.752;2022-11-15T08:43:19;11.50;99.90
53711;DHT22;39605;52.704;6.752;2022-11-15T08:45:45;11.50;99.90
53711;DHT22;39605;52.704;6.752;2022-11-15T08:48:11;11.60;99.90
53711;DHT22;39605;52.704;6.752;2022-11-15T08:50:36;11.50;99.90
53711;DHT22;39605;52.704;6.752;2022-11-15T08:53:10;11.50;99.90
53711;DHT22;39605;52.704;6.752;2022-11-15T08:55:37;11.60;99.90
53711;DHT22;39605;52.704;6.752;2022-11-15T08:58:03;11.60;99.90
53711;DHT22;39605;52.704;6.752;2022-11-15T09:00:29;11.60;99.90
53711;DHT22;39605;52.704;6.752;2022-11-15T09:02:55;11.50;99.90
53711;DHT22;39605;52.704;6.752;2022-11-15T09:05:20;11.60;99.90
53711;DHT22;39605;52.704;6.752;2022-11-15T09:07:46;11.70;99.90
53711;DHT22;39605;52.704;6.752;2022-11-15T09:10:12;11.70;99.90
53711;DHT22;39605;52.704;6.752;2022-11-15T09:12:37;11.70;99.90
53711;DHT22;39605;52.704;6.752;2022-11-15T09:15:04;11.70;99.90
53711;DHT22;39605;52.704;6.752;2022-11-15T09:17:30;11.70;99.90
53711;DHT22;39605;52.704;6.752;2022-11-15T09:19:56;11.80;99.90
53711;DHT22;39605;52.704;6.752;2022-11-15T09:22:22;11.70;99.90
53711;DHT22;39605;52.704;6.752;2022-11-15T09:24:48;11.80;99.90
53711;DHT22;39605;52.704;6.752;2022-11-15T09:27:13;11.80;99.90
53711;DHT22;39605;52.704;6.752;2022-11-15T09:29:39;11.80;99.90
53711;DHT22;39605;52.704;6.752;2022-11-15T09:32:05;11.80;99.90
53711;DHT22;39605;52.704;6.752;2022-11-15T09:34:30;11.80;99.90
53711;DHT22;39605;52.704;6.752;2022-11-15T09:36:56;11.80;99.90
53711;DHT22;39605;52.704;6.752;2022-11-15T09:39:22;11.70;99.90
53711;DHT22;39605;52.704;6.752;2022-11-15T09:42:03;11.70;99.90
53711;DHT22;39605;52.704;6.752;2022-11-15T09:49:59;11.80;99.90
53711;DHT22;39605;52.704;6.752;2022-11-15T09:52:26;11.90;99.90
53711;DHT22;39605;52.704;6.752;2022-11-15T09:54:53;11.70;99.90
53711;DHT22;39605;52.704;6.752;2022-11-15T10:00:38;11.70;99.90
53711;DHT22;39605;52.704;6.752;2022-11-15T10:03:13;11.70;99.90
53711;DHT22;39605;52.704;6.752;2022-11-15T10:05:42;11.80;99.90
53711;DHT22;39605;52.704;6.752;2022-11-15T10:11:04;11.80;99.90
53711;DHT22;39605;52.704;6.752;2022-11-15T10:13:34;11.80;99.90
53711;DHT22;39605;52.704;6.752;2022-11-15T10:19:21;11.90;99.90
53711;DHT22;39605;52.704;6.752;2022-11-15T10:24:40;12.00;99.90
53711;DHT22;39605;52.704;6.752;2022-11-15T10:27:13;12.00;99.90
53711;DHT22;39605;52.704;6.752;2022-11-15T10:29:50;12.10;99.90
53711;DHT22;39605;52.704;6.752;2022-11-15T10:32:20;12.10;99.90
53711;DHT22;39605;52.704;6.752;2022-11-15T10:34:48;12.20;99.90
53711;DHT22;39605;52.704;6.752;2022-11-15T10:37:14;12.20;99.90
53711;DHT22;39605;52.704;6.752;2022-11-15T10:39:39;12.20;99.90
53711;DHT22;39605;52.704;6.752;2022-11-15T10:42:25;12.10;99.90
53711;DHT22;39605;52.704;6.752;2022-11-15T10:44:51;12.10;99.90
53711;DHT22;39605;52.704;6.752;2022-11-15T10:47:25;12.10;99.90
53711;DHT22;39605;52.704;6.752;2022-11-15T10:50:27;12.20;99.90
53711;DHT22;39605;52.704;6.752;2022-11-15T10:52:53;12.40;99.90
53711;DHT22;39605;52.704;6.752;2022-11-15T10:55:26;12.70;99.90
53711;DHT22;39605;52.704;6.752;2022-11-15T10:58:02;12.80;99.90
53711;DHT22;39605;52.704;6.752;2022-11-15T11:00:37;12.80;99.90
53711;DHT22;39605;52.704;6.752;2022-11-15T11:06:07;12.80;99.90
53711;DHT22;39605;52.704;6.752;2022-11-15T11:08:32;13.00;99.90
53711;DHT22;39605;52.704;6.752;2022-11-15T11:11:00;13.00;99.90
53711;DHT22;39605;52.704;6.752;2022-11-15T11:13:33;12.90;99.90
53711;DHT22;39605;52.704;6.752;2022-11-15T11:22:26;13.20;99.90
53711;DHT22;39605;52.704;6.752;2022-11-15T11:24:56;13.40;99.90
53711;DHT22;39605;52.704;6.752;2022-11-15T11:28:05;13.40;99.90
53711;DHT22;39605;52.704;6.752;2022-11-15T11:34:15;13.50;99.90
53711;DHT22;39605;52.704;6.752;2022-11-15T11:42:36;13.40;99.90
53711;DHT22;39605;52.704;6.752;2022-11-15T11:47:40;13.00;99.90
53711;DHT22;39605;52.704;6.752;2022-11-15T11:53:01;12.90;99.90
53711;DHT22;39605;52.704;6.752;2022-11-15T11:55:49;12.90;99.90
53711;DHT22;39605;52.704;6.752;2022-11-15T11:58:34;13.00;99.90
53711;DHT22;39605;52.704;6.752;2022-11-15T12:01:14;13.10;99.90
53711;DHT22;39605;52.704;6.752;2022-11-15T12:04:03;13.20;99.90
53711;DHT22;39605;52.704;6.752;2022-11-15T12:09:14;13.60;99.90
53711;DHT22;39605;52.704;6.752;2022-11-15T12:14:47;13.70;99.90
53711;DHT22;39605;52.704;6.752;2022-11-15T12:17:16;13.80;99.90
53711;DHT22;39605;52.704;6.752;2022-11-15T12:19:43;13.80;99.90
53711;DHT22;39605;52.704;6.752;2022-11-15T12:22:33;13.80;99.90
53711;DHT22;39605;52.704;6.752;2022-11-15T12:25:08;13.80;99.90
53711;DHT22;39605;52.704;6.752;2022-11-15T12:27:46;13.80;99.90
53711;DHT22;39605;52.704;6.752;2022-11-15T12:30:19;13.90;99.90
53711;DHT22;39605;52.704;6.752;2022-11-15T12:32:52;13.90;99.90
53711;DHT22;39605;52.704;6.752;2022-11-15T12:37:56;14.10;99.90
53711;DHT22;39605;52.704;6.752;2022-11-15T12:40:33;14.20;99.90
53711;DHT22;39605;52.704;6.752;2022-11-15T12:45:38;14.00;99.90
53711;DHT22;39605;52.704;6.752;2022-11-15T12:53:29;13.70;99.90
53711;DHT22;39605;52.704;6.752;2022-11-15T12:58:57;13.70;99.90
53711;DHT22;39605;52.704;6.752;2022-11-15T13:06:44;13.70;99.90
53711;DHT22;39605;52.704;6.752;2022-11-15T13:14:54;13.60;99.90
53711;DHT22;39605;52.704;6.752;2022-11-15T13:20:14;13.60;99.90
53711;DHT22;39605;52.704;6.752;2022-11-15T13:22:41;13.60;99.90
53711;DHT22;39605;52.704;6.752;2022-11-15T13:25:27;13.60;99.90
53711;DHT22;39605;52.704;6.752;2022-11-15T13:27:58;13.50;99.90
53711;DHT22;39605;52.704;6.752;2022-11-15T13:30:29;13.60;99.90
53711;DHT22;39605;52.704;6.752;2022-11-15T13:32:56;13.60;99.90
53711;DHT22;39605;52.704;6.752;2022-11-15T13:35:28;13.60;99.90
53711;DHT22;39605;52.704;6.752;2022-11-15T13:37:55;13.50;99.90
53711;DHT22;39605;52.704;6.752;2022-11-15T13:40:28;13.50;99.90
53711;DHT22;39605;52.704;6.752;2022-11-15T13:42:56;13.50;99.90
53711;DHT22;39605;52.704;6.752;2022-11-15T13:45:22;13.50;99.90
53711;DHT22;39605;52.704;6.752;2022-11-15T13:47:54;13.60;99.90
53711;DHT22;39605;52.704;6.752;2022-11-15T13:50:22;13.50;99.90
53711;DHT22;39605;52.704;6.752;2022-11-15T13:52:49;13.60;99.90
53711;DHT22;39605;52.704;6.752;2022-11-15T13:55:20;13.50;99.90
53711;DHT22;39605;52.704;6.752;2022-11-15T13:57:53;13.40;99.90
53711;DHT22;39605;52.704;6.752;2022-11-15T14:00:36;13.50;99.90
53711;DHT22;39605;52.704;6.752;2022-11-15T14:03:22;13.40;99.90
53711;DHT22;39605;52.704;6.752;2022-11-15T14:06:08;13.30;99.90
53711;DHT22;39605;52.704;6.752;2022-11-15T14:08:42;13.30;99.90
53711;DHT22;39605;52.704;6.752;2022-11-15T14:11:16;13.30;99.90
53711;DHT22;39605;52.704;6.752;2022-11-15T14:13:58;13.20;99.90
53711;DHT22;39605;52.704;6.752;2022-11-15T14:16:40;13.20;99.90
53711;DHT22;39605;52.704;6.752;2022-11-15T14:19:11;13.10;99.90
53711;DHT22;39605;52.704;6.752;2022-11-15T14:21:37;13.10;99.90
53711;DHT22;39605;52.704;6.752;2022-11-15T14:24:20;13.00;99.90
53711;DHT22;39605;52.704;6.752;2022-11-15T14:26:47;12.90;99.90
53711;DHT22;39605;52.704;6.752;2022-11-15T14:29:28;12.90;99.90
53711;DHT22;39605;52.704;6.752;2022-11-15T14:32:05;12.80;99.90
53711;DHT22;39605;52.704;6.752;2022-11-15T14:34:34;12.80;99.90
53711;DHT22;39605;52.704;6.752;2022-11-15T14:36:59;12.70;99.90
53711;DHT22;39605;52.704;6.752;2022-11-15T14:39:25;12.70;99.90
53711;DHT22;39605;52.704;6.752;2022-11-15T14:41:51;12.70;99.90
53711;DHT22;39605;52.704;6.752;2022-11-15T14:44:16;12.60;99.90
53711;DHT22;39605;52.704;6.752;2022-11-15T14:46:44;12.60;99.90
53711;DHT22;39605;52.704;6.752;2022-11-15T14:49:09;12.50;99.90
53711;DHT22;39605;52.704;6.752;2022-11-15T14:51:35;12.50;99.90
53711;DHT22;39605;52.704;6.752;2022-11-15T14:54:02;12.50;99.90
53711;DHT22;39605;52.704;6.752;2022-11-15T14:56:28;12.50;99.90
53711;DHT22;39605;52.704;6.752;2022-11-15T14:58:53;12.50;99.90
53711;DHT22;39605;52.704;6.752;2022-11-15T15:01:23;12.50;99.90
53711;DHT22;39605;52.704;6.752;2022-11-15T15:03:51;12.50;99.90
53711;DHT22;39605;52.704;6.752;2022-11-15T15:06:18;12.50;99.90
53711;DHT22;39605;52.704;6.752;2022-11-15T15:08:44;12.40;99.90
53711;DHT22;39605;52.704;6.752;2022-11-15T15:11:16;12.40;99.90
53711;DHT22;39605;52.704;6.752;2022-11-15T15:13:42;12.40;99.90
53711;DHT22;39605;52.704;6.752;2022-11-15T15:16:08;12.40;99.90
53711;DHT22;39605;52.704;6.752;2022-11-15T15:18:33;12.20;99.90
53711;DHT22;39605;52.704;6.752;2022-11-15T15:20:59;12.30;99.90
53711;DHT22;39605;52.704;6.752;2022-11-15T15:23:28;12.20;99.90
53711;DHT22;39605;52.704;6.752;2022-11-15T15:25:56;12.20;99.90
53711;DHT22;39605;52.704;6.752;2022-11-15T15:28:22;12.10;99.90
53711;DHT22;39605;52.704;6.752;2022-11-15T15:30:48;12.10;99.90
53711;DHT22;39605;52.704;6.752;2022-11-15T15:33:15;12.10;99.90
53711;DHT22;39605;52.704;6.752;2022-11-15T15:35:41;12.10;99.90
53711;DHT22;39605;52.704;6.752;2022-11-15T15:38:12;12.00;99.90
53711;DHT22;39605;52.704;6.752;2022-11-15T15:40:38;12.00;99.90
53711;DHT22;39605;52.704;6.752;2022-11-15T15:43:04;11.90;99.90
53711;DHT22;39605;52.704;6.752;2022-11-15T15:45:30;11.90;99.90
53711;DHT22;39605;52.704;6.752;2022-11-15T15:47:57;11.90;99.90
53711;DHT22;39605;52.704;6.752;2022-11-15T15:50:27;11.90;99.90
53711;DHT22;39605;52.704;6.752;2022-11-15T15:52:55;11.80;99.90
53711;DHT22;39605;52.704;6.752;2022-11-15T15:55:22;11.80;99.90
53711;DHT22;39605;52.704;6.752;2022-11-15T15:57:48;11.80;99.90
53711;DHT22;39605;52.704;6.752;2022-11-15T16:00:14;11.70;99.90
53711;DHT22;39605;52.704;6.752;2022-11-15T16:02:40;11.70;99.90
53711;DHT22;39605;52.704;6.752;2022-11-15T16:05:07;11.70;99.90
53711;DHT22;39605;52.704;6.752;2022-11-15T16:07:33;11.60;99.90
53711;DHT22;39605;52.704;6.752;2022-11-15T16:09:59;11.60;99.90
53711;DHT22;39605;52.704;6.752;2022-11-15T16:12:32;11.60;99.90
53711;DHT22;39605;52.704;6.752;2022-11-15T16:14:58;11.50;99.90
53711;DHT22;39605;52.704;6.752;2022-11-15T16:17:26;11.50;99.90
53711;DHT22;39605;52.704;6.752;2022-11-15T16:19:53;11.50;99.90
53711;DHT22;39605;52.704;6.752;2022-11-15T16:22:19;11.50;99.90
53711;DHT22;39605;52.704;6.752;2022-11-15T16:24:45;11.50;99.90
53711;DHT22;39605;52.704;6.752;2022-11-15T16:27:15;11.50;99.90
53711;DHT22;39605;52.704;6.752;2022-11-15T16:29:41;11.40;99.90
53711;DHT22;39605;52.704;6.752;2022-11-15T16:32:07;11.40;99.90
53711;DHT22;39605;52.704;6.752;2022-11-15T16:34:32;11.40;99.90
53711;DHT22;39605;52.704;6.752;2022-11-15T16:36:58;11.40;99.90
53711;DHT22;39605;52.704;6.752;2022-11-15T16:39:26;11.30;99.90
53711;DHT22;39605;52.704;6.752;2022-11-15T16:41:58;11.40;99.90
53711;DHT22;39605;52.704;6.752;2022-11-15T16:44:25;11.40;99.90
53711;DHT22;39605;52.704;6.752;2022-11-15T16:46:54;11.40;99.90
53711;DHT22;39605;52.704;6.752;2022-11-15T16:49:20;11.50;99.90
53711;DHT22;39605;52.704;6.752;2022-11-15T16:51:47;11.50;99.90
53711;DHT22;39605;52.704;6.752;2022-11-15T16:54:13;11.40;99.90
53711;DHT22;39605;52.704;6.752;2022-11-15T16:56:39;11.30;99.90
53711;DHT22;39605;52.704;6.752;2022-11-15T16:59:05;11.50;99.90
53711;DHT22;39605;52.704;6.752;2022-11-15T17:01:35;11.40;99.90
53711;DHT22;39605;52.704;6.752;2022-11-15T17:04:03;11.40;99.90
53711;DHT22;39605;52.704;6.752;2022-11-15T17:06:38;11.40;99.90
53711;DHT22;39605;52.704;6.752;2022-11-15T17:09:05;11.40;99.90
53711;DHT22;39605;52.704;6.752;2022-11-15T17:11:31;11.40;99.90
53711;DHT22;39605;52.704;6.752;2022-11-15T17:13:57;11.40;99.90
53711;DHT22;39605;52.704;6.752;2022-11-15T17:16:24;11.50;99.90
53711;DHT22;39605;52.704;6.752;2022-11-15T17:18:51;11.50;99.90
53711;DHT22;39605;52.704;6.752;2022-11-15T17:21:19;11.50;99.90
53711;DHT22;39605;52.704;6.752;2022-11-15T17:23:46;11.40;99.90
53711;DHT22;39605;52.704;6.752;2022-11-15T17:26:13;11.50;99.90
53711;DHT22;39605;52.704;6.752;2022-11-15T17:28:39;11.40;99.90